Latest Weather Observations for Cowra

IDN60801

Issued at 10:52 am EST Tuesday 26 May 2020 (issued every 10 minutes, with the page automatically refreshed every 10 minutes)

About weather observations | Map of weather stations | Latest weather observations for NSW | Other Formats
Station Details ID: 065111 Name: COWRA AIRPORT AWS Lat: -33.84 Lon: 148.65 Height: 300.4 m
Data from the previous 72 hours. | See also: Recent months at Cowra
Date/Time
EST
Temp
°C
App
Temp
°C
Dew
Point
°C
Rel
Hum
%
Delta-T
°C
Wind Press
QNH
hPa
Press
MSL
hPa
Rain since
9am
mm
Dir  Spd
km/h
Gust
km/h
Spd
kts
Gust
kts
26/10:30am 13.9 11.6 9.1 73 2.5 S 11 17 6 9 1024.9 1024.9 0.0
26/10:00am 13.2 11.0 9.3 77 2.0 S 11 13 6 7 1025.1 1025.1 0.0
26/09:30am 12.5 10.0 8.4 76 2.1 SSE 11 15 6 8 1025.0 1025.0 0.0
26/09:00am 11.4 8.4 7.7 78 1.8 SSE 13 17 7 9 1024.8 1024.8 0.0
26/08:30am 10.1 7.5 7.9 86 1.1 S 11 15 6 8 1024.5 1024.5 0.0
26/08:00am 8.2 6.4 7.9 98 0.1 S 7 9 4 5 1024.1 1024.1 0.0
26/07:30am 7.3 5.2 6.6 95 0.3 S 7 9 4 5 1024.0 1024.0 0.0
26/07:00am 6.9 4.7 6.0 94 0.4 SSW 7 9 4 5 1023.4 1023.5 0.0
26/06:30am 6.6 3.5 5.4 92 0.5 S 11 11 6 6 1023.2 1023.3 0.0
26/06:00am 7.6 4.7 6.4 92 0.6 S 11 13 6 7 1022.8 1022.9 0.0
26/05:30am 7.1 4.0 5.7 91 0.6 S 11 13 6 7 1022.7 1022.8 0.0
26/05:00am 7.5 4.0 5.6 88 0.9 S 13 15 7 8 1022.6 1022.7 0.0
26/04:30am 8.4 5.0 6.0 85 1.1 S 13 17 7 9 1022.7 1022.8 0.0
26/04:00am 8.4 4.7 6.2 86 1.0 S 15 20 8 11 1022.8 1022.9 0.0
26/03:30am 8.5 6.0 6.5 87 0.9 S 9 15 5 8 1022.9 1023.0 0.0
26/03:00am 8.9 5.6 6.5 85 1.1 S 13 17 7 9 1023.1 1023.2 0.0
26/02:30am 9.3 6.1 6.7 84 1.2 S 13 17 7 9 1023.1 1023.2 0.0
26/02:00am 9.1 5.5 6.7 85 1.1 S 15 19 8 10 1023.1 1023.2 0.0
26/01:30am 10.0 6.1 7.1 82 1.4 S 17 20 9 11 1023.3 1023.4 0.0
26/01:00am 9.8 6.2 6.9 82 1.4 S 15 20 8 11 1023.2 1023.3 0.0
26/12:30am 10.6 6.7 7.3 80 1.6 S 17 24 9 13 1023.1 1023.2 0.0
26/12:00am 9.9 6.8 7.2 83 1.3 S 13 19 7 10 1023.1 1023.2 0.0
 
Date/Time
EST
Temp
°C
App
Temp
°C
Dew
Point
°C
Rel
Hum
%
Delta-T
°C
Wind Press
QNH
hPa
Press
MSL
hPa
Rain since
9am
mm
Dir  Spd
km/h
Gust
km/h
Spd
kts
Gust
kts
25/11:30pm 10.0 6.5 7.4 84 1.3 S 15 19 8 10 1023.0 1023.1 0.0
25/11:00pm 10.2 7.1 7.1 81 1.5 S 13 19 7 10 1023.0 1023.1 0.0
25/10:30pm 10.7 7.7 7.6 81 1.5 S 13 17 7 9 1023.1 1023.2 0.0
25/10:00pm 10.4 7.3 7.1 80 1.6 S 13 15 7 8 1023.1 1023.2 0.0
25/09:30pm 11.1 8.4 7.2 77 1.9 S 11 15 6 8 1023.0 1023.1 0.0
25/09:00pm 11.5 8.8 7.2 75 2.1 SSE 11 15 6 8 1022.8 1022.9 0.0
25/08:30pm 11.9 8.8 7.4 74 2.2 S 13 17 7 9 1022.6 1022.7 0.0
25/08:00pm 12.5 9.1 7.6 72 2.4 S 15 17 8 9 1022.2 1022.2 0.0
25/07:30pm 13.3 10.3 7.7 69 2.8 SSE 13 19 7 10 1021.9 1021.9 0.0
25/07:00pm 13.7 11.1 7.9 68 2.9 SSE 11 15 6 8 1021.8 1021.8 0.0
25/06:30pm 14.0 11.5 8.2 68 2.9 S 11 15 6 8 1021.5 1021.5 0.0
25/06:00pm 14.1 11.7 8.7 70 2.8 S 11 15 6 8 1021.2 1021.2 0.0
25/05:30pm 13.7 12.3 9.0 73 2.4 S 6 13 3 7 1020.8 1020.8 0.0
25/05:00pm 14.7 13.2 8.6 67 3.1 SSE 6 7 3 4 1020.2 1020.3 0.0
25/04:30pm 14.9 13.2 8.4 65 3.3 SE 7 11 4 6 1019.9 1020.0 0.0
25/04:00pm 15.3 12.8 8.1 62 3.7 SSE 11 15 6 8 1020.0 1020.1 0.0
25/03:30pm 15.4 13.3 8.4 63 3.6 SSE 9 15 5 8 1020.0 1020.1 0.0
25/03:00pm 15.3 12.8 8.3 63 3.6 S 11 17 6 9 1020.0 1020.1 0.0
25/02:30pm 15.3 11.8 7.3 59 4.0 S 15 20 8 11 1019.8 1019.9 0.0
25/02:00pm 15.9 12.6 7.9 59 4.1 SSE 15 20 8 11 1019.8 1019.9 0.0
25/01:30pm 15.0 11.5 7.1 59 3.9 SSE 15 20 8 11 1020.0 1020.1 0.0
25/01:00pm 15.1 10.8 6.9 58 4.1 SSE 19 26 10 14 1020.0 1020.1 0.0
25/12:30pm 14.7 10.4 7.0 60 3.8 SSE 19 28 10 15 1019.8 1019.9 0.0
25/12:00pm 14.1 9.8 6.9 62 3.5 SSE 19 30 10 16 1020.6 1020.6 0.0
25/11:30am 13.2 9.5 6.3 63 3.3 SSE 15 22 8 12 1020.8 1020.8 0.0
25/11:00am 12.9 8.9 6.7 66 3.0 S 17 24 9 13 1021.2 1021.2 0.0
25/10:30am 12.0 7.9 6.3 68 2.7 S 17 20 9 11 1021.3 1021.3 0.0
25/10:00am 11.5 7.7 5.6 67 2.8 S 15 20 8 11 1021.4 1021.4 0.0
25/09:30am 10.5 7.0 5.3 70 2.4 S 13 19 7 10 1021.4 1021.4 0.0
25/09:00am 9.9 7.2 5.7 75 1.9 SSE 9 11 5 6 1021.2 1021.2 0.0
25/08:30am 8.9 6.6 5.6 80 1.5 SSE 7 9 4 5 1021.0 1021.0 0.0
25/08:00am 7.5 4.6 4.8 83 1.2 SSE 9 11 5 6 1020.6 1020.6 0.0
25/07:30am 5.0 2.0 4.1 94 0.4 SSE 9 11 5 6 1020.3 1020.4 0.0
25/07:00am 5.3 2.3 4.3 93 0.4 ESE 9 13 5 7 1020.1 1020.2 0.0
25/06:30am 5.2 2.4 5.1 99 0.0 SE 9 11 5 6 1019.9 1020.0 0.0
25/06:00am 4.7 2.3 4.4 98 0.1 ESE 6 9 3 5 1019.6 1019.7 0.0
25/05:30am 4.4 1.4 4.0 97 0.2 ESE 9 11 5 6 1019.1 1019.1 0.0
25/05:00am 4.7 1.6 3.7 93 0.4 SE 9 11 5 6 1019.0 1019.0 0.0
25/04:30am 4.4 1.2 3.2 92 0.5 ESE 9 11 5 6 1018.8 1018.8 0.0
25/04:00am 5.6 2.3 2.4 80 1.3 SE 9 13 5 7 1018.8 1018.8 0.0
25/03:30am 6.6 3.1 3.6 81 1.3 S 11 13 6 7 1018.6 1018.6 0.0
25/03:00am 6.8 3.7 3.8 81 1.3 S 9 13 5 7 1018.4 1018.4 0.0
25/02:30am 6.7 3.7 3.9 82 1.2 S 9 11 5 6 1018.5 1018.5 0.0
25/02:00am 7.0 3.6 4.0 81 1.3 S 11 13 6 7 1018.5 1018.5 0.0
25/01:30am 7.3 4.3 3.9 79 1.5 S 9 9 5 5 1018.6 1018.6 0.0
25/01:00am 6.9 3.3 3.2 77 1.6 S 11 13 6 7 1018.5 1018.5 0.0
25/12:30am 8.4 5.7 3.8 73 2.0 SSE 7 11 4 6 1018.4 1018.4 0.0
25/12:00am 8.9 5.5 3.9 71 2.2 SSE 11 15 6 8 1018.5 1018.5 0.0
 
Date/Time
EST
Temp
°C
App
Temp
°C
Dew
Point
°C
Rel
Hum
%
Delta-T
°C
Wind Press
QNH
hPa
Press
MSL
hPa
Rain since
9am
mm
Dir  Spd
km/h
Gust
km/h
Spd
kts
Gust
kts
24/11:30pm 8.8 5.8 4.0 72 2.1 SE 9 11 5 6 1018.2 1018.2 0.0
24/11:00pm 8.5 5.9 4.1 74 1.9 SE 7 11 4 6 1018.4 1018.4 0.0
24/10:30pm 8.2 5.6 4.2 76 1.8 SSW 7 11 4 6 1018.4 1018.4 0.0
24/10:00pm 10.3 7.5 5.1 70 2.4 S 9 19 5 10 1018.3 1018.3 0.0
24/09:30pm 10.1 7.6 4.9 70 2.4 S 7 9 4 5 1018.2 1018.2 0.0
24/09:00pm 11.5 8.4 5.6 67 2.8 S 11 13 6 7 1018.2 1018.2 0.0
24/08:30pm 12.0 9.0 5.9 66 2.9 S 11 15 6 8 1017.9 1017.9 0.0
24/08:00pm 12.1 9.6 6.4 68 2.7 SSE 9 17 5 9 1017.7 1017.7 0.0
24/07:30pm 12.0 9.1 6.5 69 2.7 SE 11 17 6 9 1017.6 1017.6 0.0
24/07:00pm 11.6 9.0 6.3 70 2.5 SSE 9 13 5 7 1017.3 1017.3 0.0
24/06:30pm 10.8 7.8 6.0 72 2.3 S 11 11 6 6 1016.7 1016.8 0.0
24/06:00pm 11.2 8.6 5.9 70 2.5 S 9 13 5 7 1016.5 1016.5 0.0
24/05:30pm 11.5 8.1 6.0 69 2.6 SSW 13 17 7 9 1016.2 1016.2 0.0
24/05:00pm 13.1 9.8 6.2 63 3.3 SSW 13 17 7 9 1016.1 1016.1 0.0
24/04:30pm 13.9 9.9 6.5 61 3.6 SSW 17 19 9 10 1015.7 1015.7 0.0
24/04:00pm 14.7 10.2 6.0 56 4.2 SSW 19 24 10 13 1015.4 1015.4 0.0
24/03:30pm 15.0 10.4 6.3 56 4.3 S 20 24 11 13 1015.1 1015.1 0.0
24/03:00pm 15.2 10.8 6.5 56 4.3 S 19 28 10 15 1015.0 1015.0 0.0
24/02:30pm 15.0 10.5 6.0 55 4.4 S 19 26 10 14 1014.9 1014.9 0.0
24/02:00pm 15.8 11.7 6.3 53 4.7 SSE 17 28 9 15 1014.9 1014.9 0.0
24/01:30pm 15.9 11.8 7.9 59 4.1 S 19 30 10 16 1015.0 1015.0 0.0
24/01:00pm 14.7 11.8 8.2 65 3.3 SSW 13 19 7 10 1015.2 1015.2 0.0
24/12:30pm 14.5 12.0 8.0 65 3.3 S 11 17 6 9 1015.6 1015.6 0.0
24/12:00pm 14.1 12.2 8.9 71 2.7 SSW 9 11 5 6 1015.9 1015.9 0.0
24/11:30am 13.2 11.8 9.5 78 1.9 SSW 7 13 4 7 1016.4 1016.4 0.0
24/11:00am 12.5 11.1 9.5 82 1.5 WSW 7 11 4 6 1016.5 1016.5 0.0
24/10:30am 11.6 10.7 9.3 86 1.2 SSW 4 11 2 6 1016.5 1016.5 0.0
24/10:00am 10.6 10.7 10.3 98 0.2 CALM 0 0 0 0 1016.6 1016.6 0.0
24/09:30am 9.9 9.2 9.9 100 0.0 SSE 4 7 2 4 1016.3 1016.3 0.0
24/09:00am 8.4 8.0 8.4 100 0.0 CALM 0 0 0 0 1016.2 1016.2 0.8
24/08:30am 7.3 6.7 7.3 100 0.0 CALM 0 0 0 0 1015.9 1015.9 0.8
24/08:00am 6.1 5.2 6.1 100 0.0 CALM 0 0 0 0 1015.7 1015.7 0.8
24/07:30am 5.3 4.2 5.3 100 0.0 CALM 0 0 0 0 1015.3 1015.3 0.8
24/07:00am 4.5 2.9 4.5 100 0.0 SSW 2 9 1 5 1014.9 1014.9 0.8
24/06:30am 6.1 4.1 6.1 100 0.0 S 6 7 3 4 1014.5 1014.5 0.8
24/06:00am 5.8 4.8 5.8 100 0.0 CALM 0 0 0 0 1014.2 1014.2 0.8
24/05:30am 7.0 6.3 7.0 100 0.0 CALM 0 0 0 0 1013.8 1013.7 0.8
24/05:00am 7.2 6.6 7.2 100 0.0 CALM 0 0 0 0 1013.6 1013.5 0.8
24/04:30am 7.8 7.3 7.8 100 0.0 CALM 0 0 0 0 1013.3 1013.3 0.8
24/04:00am 8.1 7.7 8.1 100 0.0 CALM 0 0 0 0 1013.2 1013.2 0.8
24/03:30am 8.3 7.9 8.3 100 0.0 CALM 0 0 0 0 1013.3 1013.3 0.8
24/03:00am 8.2 7.8 8.2 100 0.0 CALM 0 0 0 0 1013.3 1013.3 0.8
24/02:30am 8.4 8.0 8.3 99 0.0 CALM 0 0 0 0 1013.5 1013.4 0.8
24/02:00am 8.7 8.4 8.6 99 0.0 CALM 0 0 0 0 1013.7 1013.6 0.4
24/01:30am 8.8 8.5 8.7 99 0.0 CALM 0 0 0 0 1013.7 1013.6 0.0
24/01:00am 8.8 8.1 8.7 99 0.0 SW 2 7 1 4 1013.7 1013.6 0.0
24/12:30am 8.8 7.1 8.2 96 0.3 SW 7 9 4 5 1013.7 1013.6 0.0
24/12:00am 8.9 7.0 7.7 92 0.6 WSW 7 11 4 6 1013.9 1013.9 0.0
 
Date/Time
EST
Temp
°C
App
Temp
°C
Dew
Point
°C
Rel
Hum
%
Delta-T
°C
Wind Press
QNH
hPa
Press
MSL
hPa
Rain since
9am
mm
Dir  Spd
km/h
Gust
km/h
Spd
kts
Gust
kts
23/11:30pm 8.7 6.5 7.9 95 0.4 WSW 9 11 5 6 1013.7 1013.6 0.0
23/11:00pm 8.6 6.8 7.8 95 0.4 W 7 9 4 5 1013.6 1013.5 0.0
23/10:30pm 8.7 6.0 7.5 92 0.6 W 11 13 6 7 1013.8 1013.7 0.0
23/10:00pm 9.0 6.7 7.6 91 0.7 W 9 9 5 5 1013.8 1013.7 0.0
23/09:30pm 9.3 6.7 7.7 90 0.8 W 11 11 6 6 1013.7 1013.6 0.0
23/09:00pm 9.7 6.7 7.6 87 1.0 WSW 13 15 7 8 1013.5 1013.4 0.0
23/08:30pm 10.1 7.4 7.5 84 1.3 WSW 11 17 6 9 1013.5 1013.4 0.0
23/08:00pm 10.5 7.1 7.7 83 1.4 SW 15 20 8 11 1013.3 1013.3 0.0
23/07:30pm 10.8 8.2 7.9 82 1.4 SW 11 15 6 8 1013.0 1013.0 0.0
23/07:00pm 10.5 9.0 8.3 86 1.1 W 6 9 3 5 1012.8 1012.8 0.0
23/06:30pm 10.0 8.7 9.2 95 0.4 WNW 6 7 3 4 1012.5 1012.5 0.0
23/06:00pm 10.2 8.7 9.1 93 0.6 NNW 7 9 4 5 1012.3 1012.3 0.0
23/05:30pm 10.5 8.9 8.9 90 0.8 NNW 7 9 4 5 1012.1 1012.1 0.0
23/05:00pm 10.9 9.2 8.5 85 1.2 NNW 7 9 4 5 1012.1 1012.1 0.0
23/04:30pm 11.1 9.0 8.3 83 1.4 N 9 11 5 6 1011.9 1011.9 0.0
23/04:00pm 11.5 9.8 8.2 80 1.6 NNW 7 9 4 5 1012.0 1012.0 0.0
23/03:30pm 11.6 9.9 8.5 81 1.6 N 7 11 4 6 1012.1 1012.1 0.0
23/03:00pm 11.1 9.0 8.1 82 1.5 N 9 13 5 7 1012.2 1012.2 0.0
23/02:30pm 10.9 8.5 8.5 85 1.2 N 11 15 6 8 1012.2 1012.2 0.0
23/02:00pm 10.4 8.1 7.6 83 1.4 N 9 13 5 7 1012.3 1012.3 0.0
23/01:30pm 10.2 8.0 8.0 86 1.1 N 9 13 5 7 1012.4 1012.4 0.0
23/01:00pm 10.1 7.6 8.0 87 1.0 N 11 13 6 7 1012.7 1012.7 0.0
23/12:30pm 9.8 7.3 8.2 90 0.8 NNW 11 15 6 8 1013.0 1013.0 0.0
23/12:00pm 9.0 6.4 7.9 93 0.5 N 11 13 6 7 1013.5 1013.4 0.0
23/11:30am 8.9 6.0 8.0 94 0.4 N 13 17 7 9 1013.8 1013.7 0.0
23/11:00am 9.0 7.3 8.2 95 0.4 N 7 11 4 6 1014.0 1014.0 0.0

Other formats

Comma delimited format used in spreadsheet applications
http://www.bom.gov.au/fwo/IDN60801/IDN60801.95721.axf

JavaScript Object Notation format (JSON) in row-major order
http://www.bom.gov.au/fwo/IDN60801/IDN60801.95721.json

Data quality

Most of these data are generated automatically and are frequently updated. Quality checks on data are not normally performed. It is possible for incorrect values to appear. Refer to information at About Latest Weather Observations and please check the disclaimer before using these data.